ADDS METAR Data INFO
IDs: Format: Raw Decoded Include TAF

Data at: 1011 UTC 14 Dec 2017

KINF 140955Z AUTO 00000KT 10SM CLR 03/03 A3002 RMK AO2
KINF 140935Z AUTO 00000KT 10SM CLR 03/03 A3002 RMK AO2
KINF 140915Z AUTO 00000KT 10SM CLR 03/03 A3003 RMK AO2
KINF 140855Z AUTO 00000KT 10SM SCT042 03/03 A3002 RMK AO2
KINF 140835Z AUTO 00000KT 10SM SCT042 03/03 A3002 RMK AO2
KINF 140815Z AUTO 00000KT 10SM CLR 03/03 A3003 RMK AO2
KINF 140755Z AUTO 00000KT 10SM SCT035 03/03 A3003 RMK AO2
KINF 140735Z AUTO 00000KT 10SM SCT035 03/03 A3003 RMK AO2
KINF 140715Z AUTO 00000KT 10SM SCT030 SCT035 03/03 A3003 RMK AO2
KINF 140655Z AUTO 00000KT 10SM SCT030 02/02 A3003 RMK AO2
KINF 140635Z AUTO 00000KT 10SM CLR 03/03 A3004 RMK AO2
KINF 140615Z AUTO 00000KT 10SM CLR 03/03 A3004 RMK AO2
KINF 140555Z AUTO 00000KT 10SM CLR 02/02 A3003 RMK AO2
KINF 140535Z AUTO 00000KT 10SM CLR 03/02 A3004 RMK AO2
KINF 140515Z AUTO 00000KT 10SM CLR 02/02 A3004 RMK AO2
KINF 140455Z AUTO 00000KT 10SM CLR 03/03 A3005 RMK AO2
KINF 140435Z AUTO 00000KT 10SM CLR 03/03 A3005 RMK AO2
KINF 140415Z AUTO 00000KT 10SM CLR 02/02 A3006 RMK AO2
KINF 140355Z AUTO 00000KT 10SM CLR 02/02 A3007 RMK AO2
KINF 140335Z AUTO 00000KT 10SM CLR 02/01 A3007 RMK AO2
KINF 140315Z AUTO 00000KT 10SM CLR 02/01 A3007 RMK AO2
KINF 140255Z AUTO 00000KT 10SM CLR 02/02 A3007 RMK AO2
KINF 140235Z AUTO 00000KT 10SM CLR 03/02 A3007 RMK AO2
KINF 140215Z AUTO 00000KT 10SM CLR 03/02 A3007 RMK AO2
KINF 140155Z AUTO 00000KT 10SM CLR 03/02 A3008 RMK AO2
KINF 140135Z AUTO 00000KT 10SM CLR 03/02 A3008 RMK AO2
KINF 140115Z AUTO 00000KT 10SM CLR 03/02 A3008 RMK AO2
KINF 140055Z AUTO 00000KT 10SM CLR 04/02 A3009 RMK AO2
KINF 140035Z AUTO 00000KT 10SM CLR 05/02 A3009 RMK AO2
KINF 140015Z AUTO 00000KT 10SM CLR 05/01 A3009 RMK AO2
KINF 132355Z AUTO 00000KT 10SM CLR 06/01 A3009 RMK AO2
KINF 132335Z AUTO 00000KT 10SM CLR 06/01 A3009 RMK AO2
KINF 132315Z AUTO 00000KT 10SM CLR 07/01 A3008 RMK AO2
KINF 132255Z AUTO 00000KT 10SM CLR 08/01 A3008 RMK AO2
KINF 132235Z AUTO 00000KT 7SM CLR 11/00 A3007 RMK AO2
KINF 132215Z AUTO 28003KT 5SM HZ CLR 12/M01 A3007 RMK AO2
KINF 132155Z AUTO 00000KT 7SM CLR 13/M05 A3007 RMK AO2
KINF 132135Z AUTO 26003KT 4SM HZ CLR 14/M05 A3006 RMK AO2
KINF 132115Z AUTO 27004KT 7SM CLR 15/M04 A3007 RMK AO2
KINF 132055Z AUTO 00000KT 7SM CLR 16/M03 A3006 RMK AO2
KINF 132035Z AUTO 26004KT 7SM CLR 16/M02 A3006 RMK AO2
KINF 132015Z AUTO 28004KT 7SM CLR 16/M01 A3006 RMK AO2
KINF 131955Z AUTO 00000KT 5SM HZ CLR 16/M02 A3006 RMK AO2
KINF 131935Z AUTO 32006KT 7SM CLR 16/M03 A3006 RMK AO2
KINF 131915Z AUTO 30004KT 7SM CLR 16/M02 A3007 RMK AO2
KINF 131855Z AUTO 29004KT 7SM CLR 16/M02 A3007 RMK AO2
KINF 131835Z AUTO 30005KT 7SM CLR 16/M02 A3008 RMK AO2
KINF 131815Z AUTO 30003KT 5SM HZ CLR 15/M02 A3009 RMK AO2
KINF 131755Z AUTO 25005KT 7SM CLR 15/M01 A3009 RMK AO2
KINF 131735Z AUTO 28004KT 7SM CLR 15/M01 A3011 RMK AO2
KINF 131715Z AUTO 34003KT 7SM CLR 14/M01 A3012 RMK AO2
KINF 131655Z AUTO 32004KT 5SM HZ CLR 13/M01 A3014 RMK AO2
KINF 131635Z AUTO 00000KT 7SM CLR 13/00 A3014 RMK AO2
KINF 131615Z AUTO 01003KT 7SM CLR 12/00 A3015 RMK AO2
KINF 131555Z AUTO 02004KT 5SM HZ CLR 12/00 A3016 RMK AO2
KINF 131535Z AUTO 01008KT 5SM HZ CLR 11/00 A3015 RMK AO2
KINF 131515Z AUTO 35006KT 7SM CLR 11/00 A3016 RMK AO2
KINF 131455Z AUTO 01008KT 5SM HZ CLR 10/00 A3016 RMK AO2
KINF 131435Z AUTO 36008KT 7SM CLR 09/00 A3016 RMK AO2
KINF 131415Z AUTO 35006KT 7SM CLR 08/02 A3016 RMK AO2
KINF 131355Z AUTO 34004KT 10SM CLR 08/02 A3016 RMK AO2
KINF 131335Z AUTO 00000KT 10SM CLR 07/02 A3015 RMK AO2
KINF 131315Z AUTO 00000KT 10SM CLR 05/03 A3014 RMK AO2
KINF 131255Z AUTO 00000KT 10SM CLR 02/02 A3014 RMK AO2
KINF 131235Z AUTO 00000KT 10SM CLR 02/02 A3014 RMK AO2
KINF 131215Z AUTO 00000KT 10SM CLR 02/02 A3013 RMK AO2
KINF 131155Z AUTO 00000KT 10SM CLR 02/02 A3012 RMK AO2
KINF 131135Z AUTO 00000KT 10SM CLR 03/02 A3011 RMK AO2
KINF 131115Z AUTO 00000KT 10SM CLR 03/02 A3010 RMK AO2
KINF 131055Z AUTO 00000KT 10SM CLR 05/02 A3009 RMK AO2
KINF 131035Z AUTO 00000KT 10SM CLR 05/02 A3008 RMK AO2
KINF 131015Z AUTO 00000KT 10SM CLR 06/02 A3008 RMK AO2
KINF 130955Z AUTO 00000KT 10SM CLR 06/02 A3007 RMK AO2
KINF 130935Z AUTO 00000KT 10SM CLR 06/02 A3006 RMK AO2
KINF 130915Z AUTO 34004KT 10SM CLR 07/02 A3006 RMK AO2
KINF 130855Z AUTO 34005KT 10SM CLR 07/02 A3006 RMK AO2
KINF 130835Z AUTO 34004KT 10SM CLR 07/02 A3006 RMK AO2
KINF 130815Z AUTO 35004KT 10SM CLR 07/02 A3005 RMK AO2
KINF 130755Z AUTO 35005KT 10SM CLR 07/02 A3005 RMK AO2
KINF 130735Z AUTO 33004KT 10SM CLR 07/02 A3005 RMK AO2
KINF 130715Z AUTO 00000KT 10SM CLR 07/02 A3005 RMK AO2
KINF 130655Z AUTO 00000KT 10SM CLR 07/02 A3005 RMK AO2
KINF 130635Z AUTO 34003KT 10SM CLR 07/02 A3005 RMK AO2
KINF 130615Z AUTO 00000KT 10SM CLR 08/02 A3005 RMK AO2
KINF 130555Z AUTO 33003KT 10SM CLR 08/02 A3005 RMK AO2
KINF 130535Z AUTO 00000KT 10SM CLR 08/02 A3005 RMK AO2
KINF 130515Z AUTO 00000KT 10SM CLR 08/02 A3005 RMK AO2
KINF 130455Z AUTO 00000KT 10SM CLR 10/02 A3005 RMK AO2
KINF 130435Z AUTO 33003KT 10SM CLR 09/02 A3005 RMK AO2
KINF 130415Z AUTO 34004KT 10SM CLR 10/02 A3004 RMK AO2
KINF 130355Z AUTO 34003KT 10SM CLR 10/03 A3004 RMK AO2
KINF 130335Z AUTO 00000KT 10SM CLR 10/03 A3003 RMK AO2
KINF 130315Z AUTO 33003KT 10SM CLR 11/03 A3002 RMK AO2
KINF 130255Z AUTO 35003KT 10SM CLR 11/04 A3002 RMK AO2
KINF 130235Z AUTO 00000KT 10SM CLR 11/04 A3002 RMK AO2
KINF 130215Z AUTO 00000KT 10SM CLR 11/05 A3001 RMK AO2
KINF 130155Z AUTO 00000KT 10SM CLR 12/05 A3001 RMK AO2
KINF 130135Z AUTO 31003KT 10SM CLR 12/05 A3000 RMK AO2
KINF 130115Z AUTO 31003KT 10SM CLR 13/05 A3000 RMK AO2
KINF 130055Z AUTO 00000KT 10SM CLR 13/05 A2999 RMK AO2
KINF 130035Z AUTO 00000KT 10SM CLR 13/06 A2998 RMK AO2
KINF 130015Z AUTO 30003KT 10SM CLR 13/07 A2998 RMK AO2
KINF 122355Z AUTO 30004KT 10SM CLR 14/08 A2997 RMK AO2
KINF 122335Z AUTO 00000KT 10SM CLR 15/09 A2996 RMK AO2
KINF 122315Z AUTO 31004KT 10SM CLR 15/10 A2995 RMK AO2
KINF 122255Z AUTO 31004KT 10SM CLR 15/09 A2994 RMK AO2
KINF 122235Z AUTO 31004KT 10SM CLR 16/10 A2994 RMK AO2
KINF 122215Z AUTO 29007KT 220V330 10SM CLR 17/10 A2993 RMK AO2